sensor_id;sensor_type;location;lat;lon;timestamp;pressure;altitude;pressure_sealevel;temperature;humidity
14117;BME280;7137;51.436;6.544;2023-07-31T00:00:34;100683.97;;;16.56;100.00
14117;BME280;7137;51.436;6.544;2023-07-31T00:03:35;100685.00;;;16.70;100.00
14117;BME280;7137;51.436;6.544;2023-07-31T00:06:37;100685.16;;;16.67;100.00
14117;BME280;7137;51.436;6.544;2023-07-31T00:09:40;100678.25;;;16.80;100.00
14117;BME280;7137;51.436;6.544;2023-07-31T00:12:43;100684.47;;;16.79;100.00
14117;BME280;7137;51.436;6.544;2023-07-31T00:15:44;100668.22;;;16.71;100.00
14117;BME280;7137;51.436;6.544;2023-07-31T00:18:46;100672.47;;;16.73;100.00
14117;BME280;7137;51.436;6.544;2023-07-31T00:21:47;100672.38;;;16.75;100.00
14117;BME280;7137;51.436;6.544;2023-07-31T00:24:50;100668.97;;;16.73;100.00
14117;BME280;7137;51.436;6.544;2023-07-31T00:27:52;100670.78;;;16.72;100.00
14117;BME280;7137;51.436;6.544;2023-07-31T00:30:54;100662.75;;;16.74;100.00
14117;BME280;7137;51.436;6.544;2023-07-31T00:33:55;100666.53;;;16.70;100.00
14117;BME280;7137;51.436;6.544;2023-07-31T00:36:57;100659.38;;;16.72;100.00
14117;BME280;7137;51.436;6.544;2023-07-31T00:40:00;100668.88;;;16.74;100.00
14117;BME280;7137;51.436;6.544;2023-07-31T00:43:03;100663.88;;;16.70;100.00
14117;BME280;7137;51.436;6.544;2023-07-31T00:46:06;100676.38;;;16.66;100.00
14117;BME280;7137;51.436;6.544;2023-07-31T00:49:08;100672.66;;;16.70;100.00
14117;BME280;7137;51.436;6.544;2023-07-31T00:52:10;100673.69;;;16.68;100.00
14117;BME280;7137;51.436;6.544;2023-07-31T00:55:13;100672.47;;;16.73;100.00
14117;BME280;7137;51.436;6.544;2023-07-31T00:58:15;100665.06;;;16.80;100.00
14117;BME280;7137;51.436;6.544;2023-07-31T01:01:16;100659.03;;;16.78;100.00
14117;BME280;7137;51.436;6.544;2023-07-31T01:04:18;100648.97;;;16.84;100.00
14117;BME280;7137;51.436;6.544;2023-07-31T01:07:27;100645.47;;;16.84;100.00
14117;BME280;7137;51.436;6.544;2023-07-31T01:10:37;100658.84;;;16.81;100.00
14117;BME280;7137;51.436;6.544;2023-07-31T01:13:40;100652.44;;;16.85;100.00
14117;BME280;7137;51.436;6.544;2023-07-31T01:16:42;100650.41;;;16.90;100.00
14117;BME280;7137;51.436;6.544;2023-07-31T01:19:44;100659.50;;;16.84;100.00
14117;BME280;7137;51.436;6.544;2023-07-31T01:22:54;100655.28;;;16.82;100.00
14117;BME280;7137;51.436;6.544;2023-07-31T01:26:04;100661.03;;;16.88;100.00
14117;BME280;7137;51.436;6.544;2023-07-31T01:29:11;100656.03;;;16.84;100.00
14117;BME280;7137;51.436;6.544;2023-07-31T01:32:19;100649.41;;;16.77;100.00
14117;BME280;7137;51.436;6.544;2023-07-31T01:35:21;100643.03;;;16.81;100.00
14117;BME280;7137;51.436;6.544;2023-07-31T01:38:22;100648.56;;;16.76;100.00
14117;BME280;7137;51.436;6.544;2023-07-31T01:41:25;100638.50;;;16.83;100.00
14117;BME280;7137;51.436;6.544;2023-07-31T01:44:27;100645.13;;;16.90;100.00
14117;BME280;7137;51.436;6.544;2023-07-31T01:47:28;100637.69;;;16.97;100.00
14117;BME280;7137;51.436;6.544;2023-07-31T01:50:30;100639.25;;;16.85;100.00
14117;BME280;7137;51.436;6.544;2023-07-31T01:53:32;100632.38;;;16.82;100.00
14117;BME280;7137;51.436;6.544;2023-07-31T01:56:35;100635.44;;;16.75;100.00
14117;BME280;7137;51.436;6.544;2023-07-31T01:59:36;100634.34;;;16.79;100.00
14117;BME280;7137;51.436;6.544;2023-07-31T02:02:38;100634.25;;;16.80;100.00
14117;BME280;7137;51.436;6.544;2023-07-31T02:05:44;100637.94;;;16.78;100.00
14117;BME280;7137;51.436;6.544;2023-07-31T02:08:45;100635.56;;;16.87;100.00
14117;BME280;7137;51.436;6.544;2023-07-31T02:11:48;100636.44;;;16.88;100.00
14117;BME280;7137;51.436;6.544;2023-07-31T02:14:50;100637.94;;;16.78;100.00
14117;BME280;7137;51.436;6.544;2023-07-31T02:17:51;100628.59;;;16.86;100.00
14117;BME280;7137;51.436;6.544;2023-07-31T02:20:53;100619.84;;;16.86;100.00
14117;BME280;7137;51.436;6.544;2023-07-31T02:23:54;100618.75;;;16.90;100.00
14117;BME280;7137;51.436;6.544;2023-07-31T02:26:57;100622.03;;;16.94;100.00
14117;BME280;7137;51.436;6.544;2023-07-31T02:29:59;100616.72;;;16.79;100.00
14117;BME280;7137;51.436;6.544;2023-07-31T02:33:01;100620.13;;;16.81;100.00
14117;BME280;7137;51.436;6.544;2023-07-31T02:36:03;100622.66;;;16.83;100.00
14117;BME280;7137;51.436;6.544;2023-07-31T02:39:04;100613.25;;;16.79;100.00
14117;BME280;7137;51.436;6.544;2023-07-31T02:42:07;100609.19;;;16.87;100.00
14117;BME280;7137;51.436;6.544;2023-07-31T02:45:09;100610.31;;;16.83;100.00
14117;BME280;7137;51.436;6.544;2023-07-31T02:48:10;100602.88;;;16.76;100.00
14117;BME280;7137;51.436;6.544;2023-07-31T02:51:12;100598.16;;;16.81;100.00
14117;BME280;7137;51.436;6.544;2023-07-31T02:54:14;100598.91;;;16.83;100.00
14117;BME280;7137;51.436;6.544;2023-07-31T02:57:16;100597.78;;;16.87;100.00
14117;BME280;7137;51.436;6.544;2023-07-31T03:00:18;100592.50;;;16.87;100.00
14117;BME280;7137;51.436;6.544;2023-07-31T03:03:20;100594.16;;;16.89;100.00
14117;BME280;7137;51.436;6.544;2023-07-31T03:06:22;100589.53;;;16.93;100.00
14117;BME280;7137;51.436;6.544;2023-07-31T03:09:24;100594.06;;;16.91;100.00
14117;BME280;7137;51.436;6.544;2023-07-31T03:12:27;100588.50;;;16.96;100.00
14117;BME280;7137;51.436;6.544;2023-07-31T03:15:29;100576.91;;;16.98;100.00
14117;BME280;7137;51.436;6.544;2023-07-31T03:18:30;100587.44;;;16.98;100.00
14117;BME280;7137;51.436;6.544;2023-07-31T03:21:32;100583.78;;;17.01;100.00
14117;BME280;7137;51.436;6.544;2023-07-31T03:24:33;100581.81;;;17.18;100.00
14117;BME280;7137;51.436;6.544;2023-07-31T03:27:36;100580.59;;;17.10;100.00
14117;BME280;7137;51.436;6.544;2023-07-31T03:30:38;100585.41;;;17.03;100.00
14117;BME280;7137;51.436;6.544;2023-07-31T03:33:40;100586.91;;;17.21;100.00
14117;BME280;7137;51.436;6.544;2023-07-31T03:36:41;100590.38;;;17.08;100.00
14117;BME280;7137;51.436;6.544;2023-07-31T03:39:43;100589.06;;;17.15;100.00
14117;BME280;7137;51.436;6.544;2023-07-31T03:42:46;100587.00;;;17.06;100.00
14117;BME280;7137;51.436;6.544;2023-07-31T03:45:47;100579.53;;;17.12;100.00
14117;BME280;7137;51.436;6.544;2023-07-31T03:48:49;100579.25;;;17.17;100.00
14117;BME280;7137;51.436;6.544;2023-07-31T03:51:51;100574.84;;;17.17;100.00
14117;BME280;7137;51.436;6.544;2023-07-31T03:54:52;100573.97;;;17.17;100.00
14117;BME280;7137;51.436;6.544;2023-07-31T03:57:55;100578.69;;;17.26;100.00
14117;BME280;7137;51.436;6.544;2023-07-31T04:00:57;100576.91;;;17.27;100.00
14117;BME280;7137;51.436;6.544;2023-07-31T04:03:58;100573.41;;;17.40;100.00
14117;BME280;7137;51.436;6.544;2023-07-31T04:07:00;100570.47;;;17.45;100.00
14117;BME280;7137;51.436;6.544;2023-07-31T04:10:02;100563.91;;;17.38;100.00
14117;BME280;7137;51.436;6.544;2023-07-31T04:13:05;100557.88;;;17.36;100.00
14117;BME280;7137;51.436;6.544;2023-07-31T04:16:07;100560.78;;;17.31;100.00
14117;BME280;7137;51.436;6.544;2023-07-31T04:19:08;100555.44;;;17.33;100.00
14117;BME280;7137;51.436;6.544;2023-07-31T04:22:10;100554.38;;;17.35;100.00
14117;BME280;7137;51.436;6.544;2023-07-31T04:25:12;100547.75;;;17.42;100.00
14117;BME280;7137;51.436;6.544;2023-07-31T04:28:15;100544.25;;;17.56;100.00
14117;BME280;7137;51.436;6.544;2023-07-31T04:31:17;100545.41;;;17.38;100.00
14117;BME280;7137;51.436;6.544;2023-07-31T04:34:18;100543.69;;;17.51;100.00
14117;BME280;7137;51.436;6.544;2023-07-31T04:37:20;100545.59;;;17.49;100.00
14117;BME280;7137;51.436;6.544;2023-07-31T04:40:22;100539.81;;;17.57;100.00
14117;BME280;7137;51.436;6.544;2023-07-31T04:43:25;100537.47;;;17.52;100.00
14117;BME280;7137;51.436;6.544;2023-07-31T04:46:26;100539.06;;;17.55;100.00
14117;BME280;7137;51.436;6.544;2023-07-31T04:49:28;100535.84;;;17.64;100.00
14117;BME280;7137;51.436;6.544;2023-07-31T04:52:29;100531.72;;;17.74;100.00
14117;BME280;7137;51.436;6.544;2023-07-31T04:55:31;100531.50;;;17.77;100.00
14117;BME280;7137;51.436;6.544;2023-07-31T04:58:34;100527.88;;;17.92;100.00
14117;BME280;7137;51.436;6.544;2023-07-31T05:01:36;100524.88;;;17.84;100.00
14117;BME280;7137;51.436;6.544;2023-07-31T05:04:37;100525.72;;;17.85;100.00
14117;BME280;7137;51.436;6.544;2023-07-31T05:07:39;100519.38;;;17.87;100.00
14117;BME280;7137;51.436;6.544;2023-07-31T05:10:40;100524.88;;;17.84;100.00
14117;BME280;7137;51.436;6.544;2023-07-31T05:13:43;100513.91;;;17.90;100.00
14117;BME280;7137;51.436;6.544;2023-07-31T05:16:45;100514.31;;;17.84;100.00
14117;BME280;7137;51.436;6.544;2023-07-31T05:19:46;100500.00;;;17.74;100.00
14117;BME280;7137;51.436;6.544;2023-07-31T05:22:48;100502.56;;;17.61;100.00
14117;BME280;7137;51.436;6.544;2023-07-31T05:25:49;100510.56;;;17.74;100.00
14117;BME280;7137;51.436;6.544;2023-07-31T05:28:52;100505.56;;;17.69;100.00
14117;BME280;7137;51.436;6.544;2023-07-31T05:31:54;100503.09;;;17.80;100.00
14117;BME280;7137;51.436;6.544;2023-07-31T05:34:55;100497.91;;;17.65;100.00
14117;BME280;7137;51.436;6.544;2023-07-31T05:37:57;100494.56;;;17.90;100.00
14117;BME280;7137;51.436;6.544;2023-07-31T05:40:58;100485.44;;;17.81;100.00
14117;BME280;7137;51.436;6.544;2023-07-31T05:44:01;100490.72;;;17.81;100.00
14117;BME280;7137;51.436;6.544;2023-07-31T05:47:03;100480.78;;;17.85;100.00
14117;BME280;7137;51.436;6.544;2023-07-31T05:50:05;100478.03;;;17.86;100.00
14117;BME280;7137;51.436;6.544;2023-07-31T05:53:07;100472.22;;;17.81;100.00
14117;BME280;7137;51.436;6.544;2023-07-31T05:56:10;100466.72;;;17.84;100.00
14117;BME280;7137;51.436;6.544;2023-07-31T05:59:13;100464.69;;;18.02;100.00
14117;BME280;7137;51.436;6.544;2023-07-31T06:02:15;100464.59;;;18.03;100.00
14117;BME280;7137;51.436;6.544;2023-07-31T06:05:16;100461.16;;;17.89;100.00
14117;BME280;7137;51.436;6.544;2023-07-31T06:08:18;100459.13;;;17.79;100.00
14117;BME280;7137;51.436;6.544;2023-07-31T06:11:20;100469.78;;;17.78;100.00
14117;BME280;7137;51.436;6.544;2023-07-31T06:14:23;100472.22;;;17.81;100.00
14117;BME280;7137;51.436;6.544;2023-07-31T06:17:25;100470.53;;;17.80;100.00
14117;BME280;7137;51.436;6.544;2023-07-31T06:20:27;100472.72;;;17.59;100.00
14117;BME280;7137;51.436;6.544;2023-07-31T06:23:29;100468.13;;;17.63;100.00
14117;BME280;7137;51.436;6.544;2023-07-31T06:26:30;100474.13;;;17.65;100.00
14117;BME280;7137;51.436;6.544;2023-07-31T06:29:34;100477.38;;;17.56;100.00
14117;BME280;7137;51.436;6.544;2023-07-31T06:32:35;100465.69;;;17.60;100.00
14117;BME280;7137;51.436;6.544;2023-07-31T06:35:37;100463.88;;;17.60;100.00
14117;BME280;7137;51.436;6.544;2023-07-31T06:38:38;100463.34;;;17.41;100.00
14117;BME280;7137;51.436;6.544;2023-07-31T06:41:41;100465.56;;;17.61;100.00
14117;BME280;7137;51.436;6.544;2023-07-31T06:44:44;100471.84;;;17.46;100.00
14117;BME280;7137;51.436;6.544;2023-07-31T06:47:46;100470.53;;;17.39;100.00
14117;BME280;7137;51.436;6.544;2023-07-31T06:50:47;100461.41;;;17.16;100.00
14117;BME280;7137;51.436;6.544;2023-07-31T06:53:49;100457.63;;;17.34;100.00
14117;BME280;7137;51.436;6.544;2023-07-31T06:56:50;100472.00;;;17.43;100.00
14117;BME280;7137;51.436;6.544;2023-07-31T06:59:53;100461.97;;;17.35;100.00
14117;BME280;7137;51.436;6.544;2023-07-31T07:02:55;100458.78;;;17.16;100.00
14117;BME280;7137;51.436;6.544;2023-07-31T07:05:56;100458.78;;;17.16;100.00
14117;BME280;7137;51.436;6.544;2023-07-31T07:08:58;100455.97;;;17.19;100.00
14117;BME280;7137;51.436;6.544;2023-07-31T07:12:00;100447.34;;;17.15;100.00
14117;BME280;7137;51.436;6.544;2023-07-31T07:15:03;100445.94;;;17.24;100.00
14117;BME280;7137;51.436;6.544;2023-07-31T07:18:05;100440.13;;;17.19;100.00
14117;BME280;7137;51.436;6.544;2023-07-31T07:21:06;100433.31;;;17.15;100.00
14117;BME280;7137;51.436;6.544;2023-07-31T07:24:08;100435.69;;;17.19;100.00
14117;BME280;7137;51.436;6.544;2023-07-31T07:27:10;100441.03;;;17.32;100.00
14117;BME280;7137;51.436;6.544;2023-07-31T07:30:13;100438.03;;;17.24;100.00
14117;BME280;7137;51.436;6.544;2023-07-31T07:33:15;100431.34;;;17.18;100.00
14117;BME280;7137;51.436;6.544;2023-07-31T07:36:17;100437.50;;;17.05;100.00
14117;BME280;7137;51.436;6.544;2023-07-31T07:39:18;100441.00;;;17.05;100.00
14117;BME280;7137;51.436;6.544;2023-07-31T07:42:20;100431.41;;;16.90;100.00
14117;BME280;7137;51.436;6.544;2023-07-31T07:45:23;100424.34;;;16.76;100.00
14117;BME280;7137;51.436;6.544;2023-07-31T07:48:25;100442.84;;;16.89;100.00
14117;BME280;7137;51.436;6.544;2023-07-31T07:51:26;100431.19;;;16.93;100.00
14117;BME280;7137;51.436;6.544;2023-07-31T07:54:30;100431.00;;;16.96;100.00
14117;BME280;7137;51.436;6.544;2023-07-31T07:57:32;100421.00;;;17.01;100.00
14117;BME280;7137;51.436;6.544;2023-07-31T08:00:35;100431.00;;;16.96;100.00
14117;BME280;7137;51.436;6.544;2023-07-31T08:03:37;100418.66;;;16.97;100.00
14117;BME280;7137;51.436;6.544;2023-07-31T08:06:38;100420.91;;;16.88;100.00
14117;BME280;7137;51.436;6.544;2023-07-31T08:09:40;100418.75;;;16.95;100.00
14117;BME280;7137;51.436;6.544;2023-07-31T08:12:42;100410.94;;;16.94;100.00
14117;BME280;7137;51.436;6.544;2023-07-31T08:15:45;100415.13;;;17.10;100.00
14117;BME280;7137;51.436;6.544;2023-07-31T08:18:46;100404.06;;;17.32;100.00
14117;BME280;7137;51.436;6.544;2023-07-31T08:21:49;100407.25;;;17.37;100.00
14117;BME280;7137;51.436;6.544;2023-07-31T08:24:50;100415.75;;;17.28;100.00
14117;BME280;7137;51.436;6.544;2023-07-31T08:27:52;100397.16;;;17.30;100.00
14117;BME280;7137;51.436;6.544;2023-07-31T08:30:55;100409.59;;;17.42;100.00
14117;BME280;7137;51.436;6.544;2023-07-31T08:33:56;100403.81;;;17.23;100.00
14117;BME280;7137;51.436;6.544;2023-07-31T08:36:58;100403.19;;;17.46;100.00
14117;BME280;7137;51.436;6.544;2023-07-31T08:39:59;100405.66;;;17.35;100.00
14117;BME280;7137;51.436;6.544;2023-07-31T08:43:01;100401.81;;;17.53;100.00
14117;BME280;7137;51.436;6.544;2023-07-31T08:46:05;100399.31;;;17.37;100.00
14117;BME280;7137;51.436;6.544;2023-07-31T08:49:07;100409.88;;;17.37;100.00
14117;BME280;7137;51.436;6.544;2023-07-31T08:52:10;100412.03;;;17.45;100.00
14117;BME280;7137;51.436;6.544;2023-07-31T08:55:11;100406.09;;;17.41;100.00
14117;BME280;7137;51.436;6.544;2023-07-31T08:58:13;100412.47;;;17.51;100.00
14117;BME280;7137;51.436;6.544;2023-07-31T09:01:16;100415.81;;;17.41;100.00
14117;BME280;7137;51.436;6.544;2023-07-31T09:04:19;100416.19;;;17.49;100.00
14117;BME280;7137;51.436;6.544;2023-07-31T09:07:24;100415.38;;;17.61;100.00
14117;BME280;7137;51.436;6.544;2023-07-31T09:10:25;100401.31;;;17.61;100.00
14117;BME280;7137;51.436;6.544;2023-07-31T09:13:28;100410.28;;;17.85;100.00
14117;BME280;7137;51.436;6.544;2023-07-31T09:16:32;100415.13;;;18.18;100.00
14117;BME280;7137;51.436;6.544;2023-07-31T09:19:36;100405.34;;;17.93;100.00
14117;BME280;7137;51.436;6.544;2023-07-31T09:22:39;100402.00;;;18.04;100.00
14117;BME280;7137;51.436;6.544;2023-07-31T09:25:44;100390.28;;;18.33;100.00
14117;BME280;7137;51.436;6.544;2023-07-31T09:28:45;100397.25;;;18.34;100.00
14117;BME280;7137;51.436;6.544;2023-07-31T09:31:50;100387.84;;;18.30;100.00
14117;BME280;7137;51.436;6.544;2023-07-31T09:34:52;100388.44;;;18.08;100.00
14117;BME280;7137;51.436;6.544;2023-07-31T09:38:01;100391.84;;;18.10;100.00
14117;BME280;7137;51.436;6.544;2023-07-31T09:41:05;100384.72;;;17.98;100.00
14117;BME280;7137;51.436;6.544;2023-07-31T09:44:08;100380.59;;;17.94;100.00
14117;BME280;7137;51.436;6.544;2023-07-31T09:47:22;100384.31;;;17.92;100.00
14117;BME280;7137;51.436;6.544;2023-07-31T09:50:25;100379.22;;;18.01;100.00
14117;BME280;7137;51.436;6.544;2023-07-31T09:53:28;100386.31;;;18.14;100.00
14117;BME280;7137;51.436;6.544;2023-07-31T09:56:32;100379.44;;;17.98;100.00
14117;BME280;7137;51.436;6.544;2023-07-31T09:59:35;100384.34;;;18.04;100.00
14117;BME280;7137;51.436;6.544;2023-07-31T10:02:39;100373.78;;;18.17;100.00
14117;BME280;7137;51.436;6.544;2023-07-31T10:05:46;100369.53;;;18.27;100.00
14117;BME280;7137;51.436;6.544;2023-07-31T10:08:51;100373.34;;;18.23;100.00
14117;BME280;7137;51.436;6.544;2023-07-31T10:11:59;100380.53;;;18.34;100.00
14117;BME280;7137;51.436;6.544;2023-07-31T10:15:02;100372.16;;;18.15;100.00
14117;BME280;7137;51.436;6.544;2023-07-31T10:18:06;100369.44;;;18.16;100.00
14117;BME280;7137;51.436;6.544;2023-07-31T10:21:08;100366.75;;;18.54;100.00
14117;BME280;7137;51.436;6.544;2023-07-31T10:24:11;100375.75;;;18.52;100.00
14117;BME280;7137;51.436;6.544;2023-07-31T10:27:13;100374.69;;;18.80;100.00
14117;BME280;7137;51.436;6.544;2023-07-31T10:30:16;100371.09;;;18.81;100.00
14117;BME280;7137;51.436;6.544;2023-07-31T10:33:20;100372.75;;;18.94;100.00
14117;BME280;7137;51.436;6.544;2023-07-31T10:36:22;100371.59;;;19.22;100.00
14117;BME280;7137;51.436;6.544;2023-07-31T10:39:36;100365.63;;;19.08;100.00
14117;BME280;7137;51.436;6.544;2023-07-31T10:42:45;100369.06;;;19.21;100.00
14117;BME280;7137;51.436;6.544;2023-07-31T10:45:48;100373.25;;;18.99;100.00
14117;BME280;7137;51.436;6.544;2023-07-31T10:48:57;100371.81;;;18.83;100.00
14117;BME280;7137;51.436;6.544;2023-07-31T10:52:03;100366.53;;;18.83;100.00
14117;BME280;7137;51.436;6.544;2023-07-31T10:55:27;100374.81;;;18.78;100.00
14117;BME280;7137;51.436;6.544;2023-07-31T10:58:29;100371.16;;;18.92;100.00
14117;BME280;7137;51.436;6.544;2023-07-31T11:01:52;100365.88;;;18.92;100.00
14117;BME280;7137;51.436;6.544;2023-07-31T11:05:09;100359.69;;;19.04;100.00
14117;BME280;7137;51.436;6.544;2023-07-31T11:08:15;100362.41;;;18.79;100.00
14117;BME280;7137;51.436;6.544;2023-07-31T11:11:18;100366.06;;;19.02;100.00
14117;BME280;7137;51.436;6.544;2023-07-31T11:14:20;100370.56;;;19.12;100.00
14117;BME280;7137;51.436;6.544;2023-07-31T11:17:24;100376.44;;;19.05;100.00
14117;BME280;7137;51.436;6.544;2023-07-31T11:20:29;100357.63;;;18.84;100.00
14117;BME280;7137;51.436;6.544;2023-07-31T11:23:31;100363.72;;;18.48;100.00
14117;BME280;7137;51.436;6.544;2023-07-31T11:26:33;100358.09;;;18.52;100.00
14117;BME280;7137;51.436;6.544;2023-07-31T11:29:35;100357.66;;;18.58;100.00
14117;BME280;7137;51.436;6.544;2023-07-31T11:32:37;100361.03;;;18.60;100.00
14117;BME280;7137;51.436;6.544;2023-07-31T11:35:44;100363.47;;;18.89;100.00
14117;BME280;7137;51.436;6.544;2023-07-31T11:38:46;100358.16;;;19.13;100.00
14117;BME280;7137;51.436;6.544;2023-07-31T11:41:48;100356.56;;;19.23;100.00
14117;BME280;7137;51.436;6.544;2023-07-31T11:44:50;100354.34;;;19.41;100.00
14117;BME280;7137;51.436;6.544;2023-07-31T11:47:51;100364.06;;;19.29;100.00
14117;BME280;7137;51.436;6.544;2023-07-31T11:50:57;100361.34;;;19.18;100.00
14117;BME280;7137;51.436;6.544;2023-07-31T11:54:00;100353.16;;;18.97;100.00
14117;BME280;7137;51.436;6.544;2023-07-31T11:57:03;100354.94;;;18.73;100.00
14117;BME280;7137;51.436;6.544;2023-07-31T12:00:07;100352.16;;;18.49;100.00
14117;BME280;7137;51.436;6.544;2023-07-31T12:03:11;100350.38;;;18.75;100.00
14117;BME280;7137;51.436;6.544;2023-07-31T12:06:14;100340.88;;;18.96;100.00
14117;BME280;7137;51.436;6.544;2023-07-31T12:09:16;100342.47;;;19.46;100.00
14117;BME280;7137;51.436;6.544;2023-07-31T12:12:19;100336.75;;;20.10;100.00
14117;BME280;7137;51.436;6.544;2023-07-31T12:15:21;100339.94;;;20.49;96.56
14117;BME280;7137;51.436;6.544;2023-07-31T12:18:24;100337.00;;;20.18;97.50
14117;BME280;7137;51.436;6.544;2023-07-31T12:21:27;100332.34;;;20.66;96.33
14117;BME280;7137;51.436;6.544;2023-07-31T12:24:28;100333.31;;;20.54;95.58
14117;BME280;7137;51.436;6.544;2023-07-31T12:27:32;100330.56;;;19.98;96.93
14117;BME280;7137;51.436;6.544;2023-07-31T12:30:34;100327.84;;;20.00;98.23
14117;BME280;7137;51.436;6.544;2023-07-31T12:33:38;100323.47;;;19.88;100.00
14117;BME280;7137;51.436;6.544;2023-07-31T12:36:42;100328.44;;;20.03;100.00
14117;BME280;7137;51.436;6.544;2023-07-31T12:39:44;100328.06;;;19.97;98.36
14117;BME280;7137;51.436;6.544;2023-07-31T12:42:45;100317.06;;;19.79;100.00
14117;BME280;7137;51.436;6.544;2023-07-31T12:45:48;100318.38;;;19.49;100.00
14117;BME280;7137;51.436;6.544;2023-07-31T12:48:50;100317.84;;;19.33;100.00
14117;BME280;7137;51.436;6.544;2023-07-31T12:51:54;100323.19;;;19.44;100.00
14117;BME280;7137;51.436;6.544;2023-07-31T12:54:56;100305.59;;;19.78;99.43
14117;BME280;7137;51.436;6.544;2023-07-31T12:57:57;100299.59;;;19.76;99.47
14117;BME280;7137;51.436;6.544;2023-07-31T13:00:59;100286.72;;;19.94;98.98
14117;BME280;7137;51.436;6.544;2023-07-31T13:04:01;100280.84;;;20.13;98.34
14117;BME280;7137;51.436;6.544;2023-07-31T13:07:04;100278.88;;;19.93;100.00
14117;BME280;7137;51.436;6.544;2023-07-31T13:10:07;100278.72;;;19.83;99.85
14117;BME280;7137;51.436;6.544;2023-07-31T13:13:09;100280.06;;;19.77;100.00
14117;BME280;7137;51.436;6.544;2023-07-31T13:16:10;100274.28;;;19.72;100.00
14117;BME280;7137;51.436;6.544;2023-07-31T13:19:12;100276.41;;;19.67;100.00
14117;BME280;7137;51.436;6.544;2023-07-31T13:22:15;100258.97;;;19.41;100.00
14117;BME280;7137;51.436;6.544;2023-07-31T13:25:17;100260.22;;;19.48;100.00
14117;BME280;7137;51.436;6.544;2023-07-31T13:28:18;100260.44;;;19.45;100.00
14117;BME280;7137;51.436;6.544;2023-07-31T13:31:20;100261.34;;;19.56;100.00
14117;BME280;7137;51.436;6.544;2023-07-31T13:34:21;100246.31;;;19.68;100.00
14117;BME280;7137;51.436;6.544;2023-07-31T13:37:24;100249.13;;;20.00;99.96
14117;BME280;7137;51.436;6.544;2023-07-31T13:40:26;100263.47;;;20.09;99.80
14117;BME280;7137;51.436;6.544;2023-07-31T13:43:27;100260.47;;;20.13;98.11
14117;BME280;7137;51.436;6.544;2023-07-31T13:46:29;100266.72;;;20.35;97.55
14117;BME280;7137;51.436;6.544;2023-07-31T13:49:32;100260.88;;;20.86;96.69
14117;BME280;7137;51.436;6.544;2023-07-31T13:52:35;100261.19;;;21.24;93.94
14117;BME280;7137;51.436;6.544;2023-07-31T13:55:37;100260.81;;;20.97;92.81
14117;BME280;7137;51.436;6.544;2023-07-31T13:58:38;100254.06;;;20.93;94.50
14117;BME280;7137;51.436;6.544;2023-07-31T14:01:40;100256.16;;;20.78;94.32
14117;BME280;7137;51.436;6.544;2023-07-31T14:04:41;100246.66;;;20.75;95.00
14117;BME280;7137;51.436;6.544;2023-07-31T14:07:44;100246.34;;;20.58;95.03
14117;BME280;7137;51.436;6.544;2023-07-31T14:10:46;100239.81;;;20.39;94.93
14117;BME280;7137;51.436;6.544;2023-07-31T14:13:47;100249.59;;;20.16;97.44
14117;BME280;7137;51.436;6.544;2023-07-31T14:16:49;100227.88;;;20.34;96.41
14117;BME280;7137;51.436;6.544;2023-07-31T14:19:51;100221.50;;;20.25;95.45
14117;BME280;7137;51.436;6.544;2023-07-31T14:22:54;100226.53;;;20.39;95.81
14117;BME280;7137;51.436;6.544;2023-07-31T14:25:55;100231.84;;;20.39;98.52
14117;BME280;7137;51.436;6.544;2023-07-31T14:28:57;100222.59;;;20.23;97.64
14117;BME280;7137;51.436;6.544;2023-07-31T14:31:59;100215.00;;;20.18;99.25
14117;BME280;7137;51.436;6.544;2023-07-31T14:35:01;100223.69;;;19.75;100.00
14117;BME280;7137;51.436;6.544;2023-07-31T14:38:04;100233.22;;;19.54;100.00
14117;BME280;7137;51.436;6.544;2023-07-31T14:41:05;100224.03;;;19.60;100.00
14117;BME280;7137;51.436;6.544;2023-07-31T14:44:07;100222.28;;;19.47;100.00
14117;BME280;7137;51.436;6.544;2023-07-31T14:47:09;100217.44;;;19.52;100.00
14117;BME280;7137;51.436;6.544;2023-07-31T14:50:10;100218.13;;;19.78;99.61
14117;BME280;7137;51.436;6.544;2023-07-31T14:53:13;100216.19;;;19.58;100.00
14117;BME280;7137;51.436;6.544;2023-07-31T14:56:15;100209.91;;;19.70;100.00
14117;BME280;7137;51.436;6.544;2023-07-31T14:59:16;100207.59;;;19.54;100.00
14117;BME280;7137;51.436;6.544;2023-07-31T15:02:18;100213.41;;;19.60;99.55
14117;BME280;7137;51.436;6.544;2023-07-31T15:05:20;100210.44;;;19.40;100.00
14117;BME280;7137;51.436;6.544;2023-07-31T15:08:23;100207.28;;;19.59;100.00
14117;BME280;7137;51.436;6.544;2023-07-31T15:11:25;100197.53;;;19.60;98.17
14117;BME280;7137;51.436;6.544;2023-07-31T15:14:26;100190.75;;;19.67;99.71
14117;BME280;7137;51.436;6.544;2023-07-31T15:17:31;100188.50;;;19.73;99.48
14117;BME280;7137;51.436;6.544;2023-07-31T15:20:32;100177.28;;;19.81;97.54
14117;BME280;7137;51.436;6.544;2023-07-31T15:23:35;100184.53;;;19.90;96.27
14117;BME280;7137;51.436;6.544;2023-07-31T15:26:38;100176.44;;;20.03;96.79
14117;BME280;7137;51.436;6.544;2023-07-31T15:29:42;100178.97;;;20.04;96.74
14117;BME280;7137;51.436;6.544;2023-07-31T15:32:44;100175.72;;;20.01;96.50
14117;BME280;7137;51.436;6.544;2023-07-31T15:35:48;100171.25;;;19.79;98.26
14117;BME280;7137;51.436;6.544;2023-07-31T15:38:51;100184.16;;;19.61;100.00
14117;BME280;7137;51.436;6.544;2023-07-31T15:41:53;100170.34;;;18.87;100.00
14117;BME280;7137;51.436;6.544;2023-07-31T15:44:54;100169.88;;;18.69;100.00
14117;BME280;7137;51.436;6.544;2023-07-31T15:47:56;100157.03;;;18.52;100.00
14117;BME280;7137;51.436;6.544;2023-07-31T15:50:57;100161.97;;;18.57;100.00
14117;BME280;7137;51.436;6.544;2023-07-31T15:54:01;100158.16;;;18.61;100.00